Time;durP1;ratioP1;P1;durP2;ratioP2;P2;SDS_P1;SDS_P2;PMS_P1;PMS_P2;Temp;Humidity;BMP_temperature;BMP_pressure;BME280_temperature;BME280_humidity;BME280_pressure;Samples;Min_cycle;Max_cycle;Signal;HPM_P1;HPM_P2
2021/07/07 00:00:17;;;;;;;0.30;0.30;;;;;;;22.59;54.56;101140.06;5107786;27;20088;-63
2021/07/07 00:02:43;;;;;;;0.40;0.40;;;;;;;22.58;54.96;101143.72;5106520;27;20468;-63
2021/07/07 00:05:11;;;;;;;0.30;0.30;;;;;;;22.57;55.10;101146.56;5106964;27;20030;-63
2021/07/07 00:07:36;;;;;;;1.17;0.20;;;;;;;22.56;54.75;101144.94;5103633;27;20092;-63
2021/07/07 00:10:07;;;;;;;0.22;0.22;;;;;;;22.55;54.90;101152.06;5104523;27;20035;-62
2021/07/07 00:12:33;;;;;;;0.15;0.13;;;;;;;22.55;54.76;101149.41;5103259;27;20039;-63
2021/07/07 00:14:59;;;;;;;0.60;0.60;;;;;;;22.54;55.30;101149.59;5107500;27;20034;-63
2021/07/07 00:17:25;;;;;;;0.40;0.40;;;;;;;22.52;55.00;101154.28;5088775;28;20044;-63
2021/07/07 00:19:50;;;;;;;0.40;0.40;;;;;;;22.52;54.88;101157.75;5104971;27;20046;-63
2021/07/07 00:22:16;;;;;;;0.30;0.30;;;;;;;22.51;55.36;101155.28;5106397;27;20480;-63
2021/07/07 00:24:43;;;;;;;0.73;0.38;;;;;;;22.50;54.91;101159.78;5104795;27;20042;-63
2021/07/07 00:27:09;;;;;;;0.20;0.20;;;;;;;22.51;54.97;101168.56;5105838;27;20054;-63
2021/07/07 00:29:35;;;;;;;0.20;0.20;;;;;;;22.50;55.20;101161.63;5107713;27;20071;-63
2021/07/07 00:32:01;;;;;;;0.22;0.22;;;;;;;22.48;55.31;101158.34;5107309;27;20042;-63
2021/07/07 00:34:26;;;;;;;0.20;0.20;;;;;;;22.48;55.00;101163.66;5105526;27;20124;-63
2021/07/07 00:36:52;;;;;;;0.10;0.10;;;;;;;22.47;55.16;101157.50;5107869;27;20039;-62
2021/07/07 00:39:17;;;;;;;0.30;0.30;;;;;;;22.46;55.08;101171.78;5105221;27;20567;-63
2021/07/07 00:41:43;;;;;;;0.22;0.22;;;;;;;22.44;55.09;101179.13;5107417;28;20027;-63
2021/07/07 00:44:09;;;;;;;0.20;0.20;;;;;;;22.44;55.50;101171.16;5108510;27;20035;-63
2021/07/07 00:46:35;;;;;;;0.28;0.28;;;;;;;22.30;55.41;101154.28;5105994;27;20061;-63
2021/07/07 00:49:00;;;;;;;0.22;0.22;;;;;;;22.38;55.65;101168.41;5109216;27;20438;-63
2021/07/07 00:51:26;;;;;;;0.55;0.52;;;;;;;22.42;55.58;101183.78;5103263;27;20048;-63
2021/07/07 00:53:55;;;;;;;0.20;0.20;;;;;;;22.42;55.69;101183.78;5107865;27;20036;-63
2021/07/07 00:56:22;;;;;;;0.40;0.40;;;;;;;22.41;55.63;101181.31;5107173;27;20555;-63
2021/07/07 00:58:52;;;;;;;0.10;0.10;;;;;;;22.39;55.50;101181.50;5106911;27;20028;-63
2021/07/07 01:01:18;;;;;;;0.20;0.20;;;;;;;22.39;55.27;101178.84;5102367;27;20035;-63
2021/07/07 01:03:43;;;;;;;0.32;0.30;;;;;;;22.37;55.47;101183.53;5106290;27;20031;-62
2021/07/07 01:06:09;;;;;;;0.30;0.30;;;;;;;22.39;55.33;101186.00;5105940;27;20035;-63
2021/07/07 01:08:34;;;;;;;0.25;0.22;;;;;;;22.37;55.76;101180.88;5105591;28;20040;-63
2021/07/07 01:11:00;;;;;;;0.20;0.20;;;;;;;22.37;55.50;101178.22;5106193;27;20046;-63
2021/07/07 01:13:25;;;;;;;0.17;0.17;;;;;;;22.37;55.65;101180.06;5105723;27;20041;-63
2021/07/07 01:15:54;;;;;;;0.22;0.22;;;;;;;22.35;55.48;101174.94;5102046;27;20124;-63
2021/07/07 01:18:20;;;;;;;0.13;0.13;;;;;;;22.35;55.66;101171.47;5105563;28;20086;-62
2021/07/07 01:20:45;;;;;;;0.20;0.20;;;;;;;22.34;55.93;101181.25;5105405;27;20035;-63
2021/07/07 01:23:11;;;;;;;0.20;0.20;;;;;;;22.33;55.79;101181.44;5066739;28;20054;-62
2021/07/07 01:25:38;;;;;;;0.22;0.20;;;;;;;22.34;55.56;101188.38;5102209;28;20023;-63
2021/07/07 01:28:06;;;;;;;0.28;0.28;;;;;;;22.33;55.93;101176.97;5103383;28;20044;-62
2021/07/07 01:30:32;;;;;;;0.43;0.40;;;;;;;22.33;55.58;101178.78;5102315;28;20501;-63
2021/07/07 01:32:58;;;;;;;0.20;0.20;;;;;;;22.27;55.80;101175.88;5086883;28;20043;-63
2021/07/07 01:35:24;;;;;;;0.00;0.00;;;;;;;22.30;55.63;101177.34;5104587;28;20038;-62
2021/07/07 01:37:52;;;;;;;0.30;0.30;;;;;;;22.30;55.64;101182.63;5102957;28;20081;-63
2021/07/07 01:40:23;;;;;;;0.20;0.20;;;;;;;22.29;56.10;101179.16;5103753;28;20130;-62
2021/07/07 01:42:49;;;;;;;0.10;0.10;;;;;;;22.26;55.60;101176.91;5104349;28;20521;-63
2021/07/07 01:45:16;;;;;;;0.32;0.28;;;;;;;22.29;55.63;101181.00;5104527;28;20158;-63
2021/07/07 01:47:41;;;;;;;0.20;0.20;;;;;;;22.28;55.71;101184.66;5105499;28;20031;-63
2021/07/07 01:50:10;;;;;;;0.15;0.15;;;;;;;22.27;55.65;101175.88;5103103;28;20464;-63
2021/07/07 01:52:36;;;;;;;0.10;0.10;;;;;;;22.27;55.78;101183.84;5104762;28;20031;-62
2021/07/07 01:55:05;;;;;;;0.30;0.30;;;;;;;22.26;55.92;101184.84;5102429;28;20873;-63
2021/07/07 01:57:43;;;;;;;0.20;0.20;;;;;;;22.25;55.92;101187.66;5104472;28;20132;-63
2021/07/07 02:00:39;;;;;;;0.20;0.20;;;;;;;22.25;55.93;101191.13;5102796;28;20047;-63
2021/07/07 02:03:04;;;;;;;0.17;0.17;;;;;;;22.23;56.19;101187.03;5099835;28;20501;-63
2021/07/07 02:05:33;;;;;;;0.38;0.38;;;;;;;22.20;55.81;101179.44;5103604;28;20035;-63
2021/07/07 02:08:01;;;;;;;0.17;0.17;;;;;;;22.22;56.26;101183.56;5104431;28;20488;-63
2021/07/07 02:10:27;;;;;;;0.30;0.30;;;;;;;22.19;55.82;101178.63;5101969;28;20044;-63
2021/07/07 02:12:52;;;;;;;0.28;0.28;;;;;;;22.22;55.88;101188.03;5104707;28;20042;-63
2021/07/07 02:15:22;;;;;;;0.55;0.30;;;;;;;22.21;55.79;101195.19;5104582;28;20035;-62
2021/07/07 02:17:50;;;;;;;0.30;0.30;;;;;;;22.21;55.88;101197.84;5103327;28;20039;-64
2021/07/07 02:20:16;;;;;;;0.35;0.35;;;;;;;22.21;56.25;101197.00;5104831;28;20031;-63
2021/07/07 02:22:43;;;;;;;0.13;0.13;;;;;;;22.20;56.22;101203.31;5084518;28;20051;-62
2021/07/07 02:25:12;;;;;;;0.20;0.20;;;;;;;22.19;56.23;101193.72;5103247;28;20114;-63
2021/07/07 02:27:38;;;;;;;0.20;0.20;;;;;;;22.19;55.80;101199.84;5100709;28;20481;-63
2021/07/07 02:30:07;;;;;;;0.15;0.15;;;;;;;22.18;55.99;101200.88;5101969;28;20053;-63
2021/07/07 02:32:32;;;;;;;0.23;0.23;;;;;;;22.16;56.08;101202.88;5102274;28;20055;-63
2021/07/07 02:34:58;;;;;;;0.10;0.10;;;;;;;22.16;56.32;101205.53;5107585;28;20485;-63
2021/07/07 02:37:23;;;;;;;0.25;0.25;;;;;;;22.09;56.21;101183.44;5105972;28;20106;-63
2021/07/07 02:39:49;;;;;;;0.20;0.20;;;;;;;22.13;56.38;101203.25;5089417;28;20044;-63
2021/07/07 02:42:16;;;;;;;0.20;0.20;;;;;;;22.14;56.45;101201.44;5107439;28;20047;-62
2021/07/07 02:44:43;;;;;;;0.17;0.17;;;;;;;22.14;56.06;101199.59;5108098;28;20040;-62
2021/07/07 02:47:08;;;;;;;0.20;0.20;;;;;;;22.14;56.29;101204.09;5108111;28;20048;-63
2021/07/07 02:49:34;;;;;;;0.13;0.13;;;;;;;22.13;56.12;101197.94;5108596;28;20051;-63
2021/07/07 02:51:59;;;;;;;0.20;0.20;;;;;;;22.09;56.38;101198.53;5105516;28;20039;-62
2021/07/07 02:54:25;;;;;;;0.17;0.17;;;;;;;22.11;56.38;101202.63;5109708;28;20046;-63
2021/07/07 02:56:50;;;;;;;0.22;0.22;;;;;;;22.10;56.19;101202.81;5104248;28;20039;-63
2021/07/07 02:59:16;;;;;;;0.25;0.25;;;;;;;22.10;56.37;101203.63;5104675;28;20485;-63
2021/07/07 03:01:41;;;;;;;0.10;0.10;;;;;;;22.10;56.04;101210.78;5108150;28;20036;-63
2021/07/07 03:04:07;;;;;;;0.10;0.10;;;;;;;22.08;56.31;101205.63;5107955;28;20054;-63
2021/07/07 03:06:32;;;;;;;0.20;0.20;;;;;;;22.10;56.57;101208.94;5107541;28;20040;-63
2021/07/07 03:09:00;;;;;;;0.17;0.17;;;;;;;22.09;56.30;101215.25;5104570;28;20024;-63
2021/07/07 03:11:26;;;;;;;0.13;0.13;;;;;;;22.08;56.43;101216.22;5106925;28;20078;-63
2021/07/07 03:13:52;;;;;;;0.17;0.17;;;;;;;22.09;56.55;101211.78;5090432;28;20535;-63
2021/07/07 03:16:17;;;;;;;0.30;0.22;;;;;;;22.04;56.11;101209.63;5106875;28;20051;-63
2021/07/07 03:18:43;;;;;;;0.10;0.10;;;;;;;22.07;56.12;101222.53;5108288;28;20031;-63
2021/07/07 03:21:11;;;;;;;0.10;0.10;;;;;;;21.94;56.24;101201.16;5105497;28;20050;-63
2021/07/07 03:23:36;;;;;;;0.45;0.30;;;;;;;22.07;56.49;101219.06;5107733;28;20042;-63
2021/07/07 03:26:02;;;;;;;0.28;0.28;;;;;;;22.04;56.15;101214.94;5107247;28;20040;-62
2021/07/07 03:28:28;;;;;;;0.10;0.10;;;;;;;22.05;56.40;101226.38;5108457;28;20084;-63
2021/07/07 03:30:54;;;;;;;0.20;0.20;;;;;;;22.05;56.53;101224.56;5088148;28;20034;-63
2021/07/07 03:33:20;;;;;;;0.20;0.20;;;;;;;22.04;56.30;101230.84;5105888;28;20047;-63
2021/07/07 03:35:46;;;;;;;0.13;0.13;;;;;;;22.03;56.72;101227.38;5088578;28;20133;-63
2021/07/07 03:38:12;;;;;;;0.20;0.20;;;;;;;21.99;56.39;101234.06;5105088;28;20035;-63
2021/07/07 03:40:38;;;;;;;0.20;0.20;;;;;;;22.03;56.63;101240.63;5106802;28;20035;-63
2021/07/07 03:43:04;;;;;;;0.20;0.20;;;;;;;22.01;56.51;101245.31;5106800;28;20132;-63
2021/07/07 03:45:30;;;;;;;0.38;0.38;;;;;;;22.02;56.72;101241.63;5086517;28;20847;-63
2021/07/07 03:47:55;;;;;;;0.28;0.20;;;;;;;22.00;56.41;101246.31;5106800;28;20054;-62
2021/07/07 03:50:22;;;;;;;0.15;0.15;;;;;;;22.01;56.20;101250.59;5104828;28;20227;-63
2021/07/07 03:52:48;;;;;;;0.20;0.20;;;;;;;21.98;56.56;101253.63;5105925;28;20031;-63
2021/07/07 03:55:16;;;;;;;0.30;0.30;;;;;;;21.94;56.47;101251.53;5103882;28;20035;-62
2021/07/07 03:57:42;;;;;;;0.25;0.25;;;;;;;22.00;56.53;101272.00;5105983;28;20060;-63
2021/07/07 04:00:17;;;;;;;0.38;0.22;;;;;;;21.94;56.59;101249.69;5105614;28;20062;-63
2021/07/07 04:02:42;;;;;;;0.10;0.10;;;;;;;22.00;56.49;101261.41;5104432;28;20043;-63
2021/07/07 04:05:10;;;;;;;0.32;0.17;;;;;;;21.99;56.66;101273.84;5106512;28;20058;-63
2021/07/07 04:07:36;;;;;;;0.20;0.20;;;;;;;21.98;56.43;101274.84;5102208;28;20115;-63
2021/07/07 04:10:05;;;;;;;0.20;0.20;;;;;;;21.99;56.32;101268.53;5087363;28;20472;-63
2021/07/07 04:12:31;;;;;;;;;;;;;;;21.98;56.52;101280.16;5105288;28;20128;-63
2021/07/07 04:14:57;;;;;;;0.10;0.10;;;;;;;21.99;56.29;101278.31;5103387;28;19970;-62
2021/07/07 04:17:22;;;;;;;0.10;0.10;;;;;;;21.98;56.30;101284.63;5087671;28;20411;-63
2021/07/07 04:19:48;;;;;;;0.28;0.22;;;;;;;21.97;56.52;101278.50;5087139;28;20043;-63
2021/07/07 04:22:13;;;;;;;0.10;0.10;;;;;;;21.97;56.34;101285.63;5104548;28;20039;-63
2021/07/07 04:24:39;;;;;;;0.20;0.20;;;;;;;21.95;56.54;101277.03;5087127;28;20400;-63
2021/07/07 04:27:05;;;;;;;0.20;0.20;;;;;;;21.89;56.54;101267.97;5104754;28;20046;-63
2021/07/07 04:29:31;;;;;;;0.20;0.20;;;;;;;21.96;56.65;101284.00;5106145;28;20086;-63
2021/07/07 04:31:57;;;;;;;0.25;0.17;;;;;;;21.95;56.39;101280.50;5105492;28;20035;-63
2021/07/07 04:34:26;;;;;;;0.40;0.40;;;;;;;21.95;56.53;101288.47;5104340;28;20055;-63
2021/07/07 04:36:52;;;;;;;0.30;0.30;;;;;;;21.95;56.67;101285.00;5106838;28;20043;-63
2021/07/07 04:39:18;;;;;;;0.10;0.10;;;;;;;21.94;56.57;101284.19;5105796;28;20040;-63
2021/07/07 04:41:43;;;;;;;0.22;0.22;;;;;;;21.95;56.58;101290.31;5104278;28;20046;-63
2021/07/07 04:44:09;;;;;;;0.10;0.10;;;;;;;21.80;56.44;101263.78;5086635;28;20080;-63
2021/07/07 04:46:35;;;;;;;0.10;0.10;;;;;;;21.94;56.48;101292.13;5105822;28;20035;-63
2021/07/07 04:49:00;;;;;;;0.43;0.38;;;;;;;21.96;56.39;101299.91;5105122;28;20043;-63
2021/07/07 04:51:26;;;;;;;0.28;0.28;;;;;;;21.95;56.65;101298.25;5085634;28;20110;-63
2021/07/07 04:53:51;;;;;;;0.30;0.30;;;;;;;21.94;56.55;101300.09;5106892;28;20039;-63
2021/07/07 04:56:17;;;;;;;0.20;0.20;;;;;;;21.93;56.56;101301.09;5105276;28;20036;-63
2021/07/07 04:58:42;;;;;;;0.15;0.15;;;;;;;21.79;56.39;101277.22;5105330;28;20031;-63
2021/07/07 05:01:09;;;;;;;0.20;0.20;;;;;;;21.94;56.38;101300.09;5104668;28;20040;-63
2021/07/07 05:03:35;;;;;;;0.25;0.25;;;;;;;21.96;56.57;101305.19;5105088;28;20619;-63
2021/07/07 05:06:01;;;;;;;0.20;0.20;;;;;;;21.95;56.18;101298.25;5104696;28;20116;-63
2021/07/07 05:08:27;;;;;;;0.20;0.20;;;;;;;21.95;56.58;101296.41;5104512;28;20061;-63
2021/07/07 05:10:52;;;;;;;0.28;0.20;;;;;;;21.94;56.40;101300.09;5104631;28;20477;-63
2021/07/07 05:13:18;;;;;;;0.32;0.30;;;;;;;21.91;56.34;101292.50;5104375;28;20448;-63
2021/07/07 05:15:48;;;;;;;0.30;0.30;;;;;;;21.94;56.59;101300.09;5104748;28;20043;-63
2021/07/07 05:18:14;;;;;;;0.25;0.25;;;;;;;21.91;56.49;101291.69;5101971;28;20476;-63
2021/07/07 05:20:40;;;;;;;0.20;0.20;;;;;;;21.94;56.16;101296.59;5085372;28;20089;-63
2021/07/07 05:23:09;;;;;;;0.30;0.28;;;;;;;21.94;56.27;101288.66;5105868;28;20561;-63
2021/07/07 05:25:39;;;;;;;0.20;0.20;;;;;;;21.95;56.36;101303.56;5104956;28;20043;-63
2021/07/07 05:28:06;;;;;;;0.35;0.30;;;;;;;21.91;56.50;101296.97;5101569;28;20377;-63
2021/07/07 05:30:32;;;;;;;0.20;0.20;;;;;;;21.94;56.32;101308.03;5102579;28;20133;-62
2021/07/07 05:33:00;;;;;;;0.20;0.20;;;;;;;21.88;56.32;101298.13;5086877;28;20046;-63
2021/07/07 05:35:26;;;;;;;0.30;0.20;;;;;;;21.93;56.26;101302.91;5102404;28;20081;-62
2021/07/07 05:37:52;;;;;;;0.88;0.13;;;;;;;21.95;56.39;101312.34;5104041;28;20067;-63
2021/07/07 05:40:19;;;;;;;0.20;0.20;;;;;;;21.95;56.18;101314.97;5103647;28;20050;-63
2021/07/07 05:42:50;;;;;;;0.32;0.32;;;;;;;21.95;56.27;101314.16;5104805;28;20118;-62
2021/07/07 05:45:17;;;;;;;0.20;0.20;;;;;;;21.95;56.67;101325.59;5104394;28;20124;-63
2021/07/07 05:47:42;;;;;;;0.55;0.55;;;;;;;21.96;56.42;101315.81;5103439;28;20568;-63
2021/07/07 05:50:08;;;;;;;0.30;0.30;;;;;;;21.96;56.32;101315.81;5103772;28;20128;-63
2021/07/07 05:52:34;;;;;;;0.52;0.38;;;;;;;21.96;56.61;101316.63;5102394;28;20076;-62
2021/07/07 05:54:59;;;;;;;0.45;0.45;;;;;;;21.97;56.25;101322.75;5102714;28;20040;-62
2021/07/07 05:57:37;;;;;;;0.20;0.20;;;;;;;21.92;56.33;101328.63;5105106;28;20036;-62
2021/07/07 06:00:09;;;;;;;0.40;0.40;;;;;;;21.98;56.15;101335.84;5101871;28;20046;-62
2021/07/07 06:02:35;;;;;;;0.22;0.22;;;;;;;21.97;56.41;101325.41;5085957;28;20036;-62
2021/07/07 06:05:01;;;;;;;0.40;0.40;;;;;;;22.01;56.15;101342.59;5103255;28;20065;-62
2021/07/07 06:07:26;;;;;;;0.52;0.52;;;;;;;21.87;56.17;101311.56;5096294;28;20036;-68
2021/07/07 06:09:52;;;;;;;0.80;0.60;;;;;;;21.96;56.73;101342.31;5088308;28;20565;-61
2021/07/07 06:12:17;;;;;;;0.57;0.40;;;;;;;22.01;56.43;101345.25;5074940;28;20050;-61
2021/07/07 06:14:43;;;;;;;1.02;0.65;;;;;;;22.04;56.30;101342.22;5099335;28;20439;-61
2021/07/07 06:17:08;;;;;;;0.43;0.43;;;;;;;22.07;56.40;101349.84;5104713;28;20075;-63
2021/07/07 06:19:34;;;;;;;0.68;0.68;;;;;;;22.07;56.10;101355.16;5104524;28;20101;-62
2021/07/07 06:22:01;;;;;;;0.73;0.40;;;;;;;22.03;55.98;101345.88;5100530;28;20466;-62
2021/07/07 06:24:28;;;;;;;0.60;0.50;;;;;;;22.09;56.24;101357.66;5094350;28;20713;-62
2021/07/07 06:26:53;;;;;;;0.30;0.30;;;;;;;22.08;56.16;101354.16;5104962;28;20027;-62
2021/07/07 06:29:19;;;;;;;0.52;0.52;;;;;;;22.10;55.99;101357.47;5089461;28;20477;-62
2021/07/07 06:31:45;;;;;;;0.47;0.47;;;;;;;22.10;56.23;101359.28;5098061;28;20439;-62
2021/07/07 06:34:11;;;;;;;0.75;0.50;;;;;;;22.09;56.10;101361.13;5105224;28;20098;-62
2021/07/07 06:36:37;;;;;;;0.50;0.45;;;;;;;22.03;56.06;101356.50;5105282;28;20169;-63
2021/07/07 06:39:03;;;;;;;0.35;0.35;;;;;;;22.07;55.97;101363.09;5100498;28;20036;-62
2021/07/07 06:41:28;;;;;;;0.75;0.57;;;;;;;22.09;56.05;101365.59;5085357;28;20070;-62
2021/07/07 06:43:54;;;;;;;0.45;0.38;;;;;;;22.08;56.16;101363.94;5106017;28;20145;-62
2021/07/07 06:46:19;;;;;;;0.30;0.30;;;;;;;22.08;56.00;101366.59;5103966;28;20020;-62
2021/07/07 06:48:45;;;;;;;0.68;0.50;;;;;;;22.07;56.27;101365.75;5103902;28;20043;-62
2021/07/07 06:51:10;;;;;;;1.10;0.60;;;;;;;22.06;56.08;101363.28;5103668;28;20093;-62
2021/07/07 06:53:36;;;;;;;0.52;0.43;;;;;;;22.08;56.15;101359.44;5103757;28;20043;-62
2021/07/07 06:56:02;;;;;;;0.50;0.50;;;;;;;22.08;55.87;101361.28;5103296;28;20409;-62
2021/07/07 06:58:27;;;;;;;0.30;0.30;;;;;;;22.13;55.75;101365.06;5104503;28;20050;-66
2021/07/07 07:00:53;;;;;;;1.08;0.75;;;;;;;21.42;56.77;101371.63;5074592;28;20040;-68
2021/07/07 07:03:18;;;;;;;0.65;0.60;;;;;;;21.04;57.71;101368.88;5102286;28;20047;-68
2021/07/07 07:05:44;;;;;;;1.02;0.75;;;;;;;20.91;58.17;101376.53;5102276;28;20035;-67
2021/07/07 07:08:13;;;;;;;0.93;0.82;;;;;;;20.82;58.19;101374.91;5104491;28;20081;-67
2021/07/07 07:10:38;;;;;;;1.13;0.80;;;;;;;20.83;58.12;101370.47;5103510;28;20044;-68
2021/07/07 07:13:04;;;;;;;1.30;0.70;;;;;;;20.83;58.23;101363.34;5100619;28;20738;-68
2021/07/07 07:15:29;;;;;;;0.98;0.55;;;;;;;21.13;58.33;101359.03;5070398;28;20404;-68
2021/07/07 07:17:55;;;;;;;1.75;0.90;;;;;;;21.07;57.48;101376.44;5090498;28;20095;-67
2021/07/07 07:20:25;;;;;;;0.93;0.90;;;;;;;20.85;58.35;101374.59;5101688;28;20039;-67
2021/07/07 07:22:50;;;;;;;;;;;;;;;21.13;57.70;101375.75;5082457;28;20043;-68
2021/07/07 07:25:16;;;;;;;3.08;0.85;;;;;;;21.21;57.95;101376.72;5106785;28;19916;-67
2021/07/07 07:27:42;;;;;;;1.50;0.60;;;;;;;21.69;56.06;101375.53;5080595;27;20047;-63
2021/07/07 07:30:09;;;;;;;0.85;0.85;;;;;;;21.83;56.18;101376.59;5085410;28;20063;-67
2021/07/07 07:32:35;;;;;;;1.00;0.75;;;;;;;21.76;56.94;101375.66;5078854;28;20036;-65
2021/07/07 07:35:00;;;;;;;0.80;0.80;;;;;;;21.83;55.69;101376.59;5104816;28;20386;-65
2021/07/07 07:37:37;;;;;;;1.30;0.90;;;;;;;20.88;57.78;101366.31;5077200;28;20039;-65
2021/07/07 07:40:09;;;;;;;1.63;1.17;;;;;;;21.22;57.04;101383.66;5104583;27;21814;-65
2021/07/07 07:42:35;;;;;;;1.63;0.93;;;;;;;21.18;56.25;101371.72;5077465;28;20552;-64
2021/07/07 07:45:01;;;;;;;1.13;0.80;;;;;;;21.37;56.30;101377.47;5101849;28;20055;-64
2021/07/07 07:47:27;;;;;;;0.70;0.57;;;;;;;21.21;56.69;101385.47;5068214;28;20584;-65
2021/07/07 07:49:52;;;;;;;1.90;0.82;;;;;;;21.22;56.32;101389.78;5101504;28;20059;-64
2021/07/07 07:52:18;;;;;;;2.60;1.00;;;;;;;21.19;56.96;101387.47;5074497;28;21009;-64
2021/07/07 07:54:44;;;;;;;0.60;0.60;;;;;;;21.29;56.82;101385.44;5099460;28;20046;-64
2021/07/07 07:57:09;;;;;;;0.88;0.80;;;;;;;21.35;56.72;101395.31;5085811;28;20118;-64
2021/07/07 07:59:35;;;;;;;1.38;0.70;;;;;;;21.40;56.62;101402.78;5098426;28;20765;-64
2021/07/07 08:02:00;;;;;;;1.25;0.77;;;;;;;21.41;56.73;101413.19;5087201;28;20039;-64
2021/07/07 08:04:26;;;;;;;1.05;0.73;;;;;;;21.45;56.31;101403.06;5088856;28;20047;-64
2021/07/07 08:06:52;;;;;;;0.60;0.60;;;;;;;21.48;56.00;101407.19;5103591;28;20481;-64
2021/07/07 08:09:17;;;;;;;1.05;0.80;;;;;;;21.27;57.19;101408.63;5075199;28;20040;-64
2021/07/07 08:11:43;;;;;;;1.17;0.68;;;;;;;21.44;56.28;101411.19;5102994;28;20043;-64
2021/07/07 08:14:09;;;;;;;1.70;1.10;;;;;;;21.71;55.62;101413.28;5078830;28;20044;-63
2021/07/07 08:16:35;;;;;;;0.93;0.80;;;;;;;21.34;56.85;101408.75;5106120;28;20044;-64
2021/07/07 08:19:00;;;;;;;1.17;0.85;;;;;;;21.38;57.17;101407.41;5079484;28;20431;-63
2021/07/07 08:21:26;;;;;;;0.73;0.73;;;;;;;21.56;56.65;101404.47;5086434;28;20386;-64
2021/07/07 08:23:51;;;;;;;1.83;0.90;;;;;;;21.53;55.85;101386.25;5061633;28;20139;-63
2021/07/07 08:26:18;;;;;;;1.00;0.70;;;;;;;21.54;56.13;101409.09;5086884;28;20043;-63
2021/07/07 08:28:43;;;;;;;1.17;0.75;;;;;;;21.38;56.84;101410.06;5080928;28;20039;-64
2021/07/07 08:31:09;;;;;;;1.13;0.93;;;;;;;21.53;56.11;101408.28;5101313;28;20164;-64
2021/07/07 08:33:34;;;;;;;1.17;0.80;;;;;;;21.31;57.34;101411.75;5080276;28;20035;-64
2021/07/07 08:36:00;;;;;;;2.30;1.00;;;;;;;21.50;56.81;101411.28;5077107;28;20035;-64
2021/07/07 08:38:26;;;;;;;1.60;1.35;;;;;;;21.48;56.57;101409.81;5105382;28;20088;-64
2021/07/07 08:40:51;;;;;;;2.72;1.13;;;;;;;21.26;57.58;101417.59;5079457;28;20377;-63
2021/07/07 08:43:17;;;;;;;5.60;1.13;;;;;;;21.43;56.76;101413.00;5104469;28;20050;-62
2021/07/07 08:45:42;;;;;;;1.60;0.80;;;;;;;21.64;56.33;101429.09;5079336;28;20122;-64
2021/07/07 08:48:08;;;;;;;1.38;1.05;;;;;;;21.68;56.32;101424.25;5104354;28;20042;-63
2021/07/07 08:50:35;;;;;;;1.77;1.05;;;;;;;21.59;56.91;101425.31;5069426;27;20028;-64
2021/07/07 08:53:02;;;;;;;1.63;1.05;;;;;;;21.97;55.71;101421.69;5081929;28;20031;-63
2021/07/07 08:55:29;;;;;;;1.15;0.90;;;;;;;22.25;54.70;101423.78;5096194;28;20050;-64
2021/07/07 08:57:57;;;;;;;1.10;0.70;;;;;;;22.31;53.88;101418.59;5080961;27;20039;-64
2021/07/07 09:00:28;;;;;;;0.80;0.80;;;;;;;22.36;53.35;101394.16;5097919;28;20048;-65
2021/07/07 09:03:06;;;;;;;1.50;0.75;;;;;;;22.52;53.34;101422.34;5088062;28;20050;-63
2021/07/07 09:06:06;;;;;;;2.25;0.90;;;;;;;22.70;52.92;101428.09;5100994;28;20023;-63
2021/07/07 09:08:35;;;;;;;1.50;0.90;;;;;;;23.05;52.13;101421.22;5046647;28;20056;-63
2021/07/07 09:11:26;;;;;;;1.13;0.80;;;;;;;22.89;52.43;101419.59;5094853;28;20177;-63
2021/07/07 09:14:09;;;;;;;1.00;0.77;;;;;;;23.03;52.43;101423.25;5100306;28;20042;-64
2021/07/07 09:16:50;;;;;;;1.05;0.95;;;;;;;22.76;53.41;101424.69;5101366;28;20068;-63
2021/07/07 09:19:23;;;;;;;1.02;0.75;;;;;;;22.77;53.26;101426.34;5099734;28;20105;-63
2021/07/07 09:22:01;;;;;;;1.38;0.75;;;;;;;22.91;52.90;101436.16;5104696;28;20027;-63
2021/07/07 09:24:26;;;;;;;1.55;0.80;;;;;;;23.01;52.85;101435.88;5062818;28;20557;-64
2021/07/07 09:27:06;;;;;;;1.30;1.00;;;;;;;23.38;51.64;101428.72;5107256;28;20039;-64
2021/07/07 09:29:46;;;;;;;1.20;0.98;;;;;;;23.27;51.63;101437.19;5051500;28;20069;-62
2021/07/07 09:32:19;;;;;;;1.55;0.95;;;;;;;22.95;53.13;101427.81;5083599;28;20051;-61
2021/07/07 09:34:49;;;;;;;2.45;1.30;;;;;;;22.96;53.01;101440.91;5072870;28;20055;-61
2021/07/07 09:37:34;;;;;;;1.48;0.88;;;;;;;23.00;52.80;101449.34;5100417;28;20063;-62
2021/07/07 09:40:00;;;;;;;2.15;0.77;;;;;;;23.11;52.82;101451.50;5058306;28;20039;-62
2021/07/07 09:42:30;;;;;;;0.90;0.70;;;;;;;23.17;52.84;101454.28;5104881;28;20035;-62
2021/07/07 09:44:59;;;;;;;1.83;0.80;;;;;;;23.26;52.41;101454.97;5073709;28;20432;-61
2021/07/07 09:47:26;;;;;;;1.67;0.88;;;;;;;23.25;52.24;101457.81;5083842;28;20099;-61
2021/07/07 09:49:52;;;;;;;1.35;0.90;;;;;;;23.28;52.73;101458.25;5076798;28;20043;-62
2021/07/07 09:52:24;;;;;;;1.77;1.02;;;;;;;23.61;50.98;101457.81;5102705;28;20044;-70
2021/07/07 09:54:50;;;;;;;1.38;0.90;;;;;;;23.19;51.46;101454.91;5064320;28;20055;-63
2021/07/07 09:57:17;;;;;;;1.40;0.90;;;;;;;23.18;50.95;101455.09;5105747;28;20039;-65
2021/07/07 09:59:43;;;;;;;1.27;0.77;;;;;;;23.06;51.45;101449.41;5100312;28;20035;-67
2021/07/07 10:02:09;;;;;;;3.22;1.17;;;;;;;23.21;51.11;101449.41;5072165;28;20402;-66
2021/07/07 10:04:41;;;;;;;1.15;0.98;;;;;;;23.19;51.43;101452.25;5102218;28;20093;-65
2021/07/07 10:07:08;;;;;;;1.63;1.08;;;;;;;23.24;51.68;101454.34;5077881;28;20151;-65
2021/07/07 10:09:37;;;;;;;2.38;1.10;;;;;;;23.29;51.41;101467.88;5085461;28;20037;-67
2021/07/07 10:12:03;;;;;;;0.68;0.57;;;;;;;23.09;52.61;101456.19;5067079;28;20047;-68
2021/07/07 10:14:29;;;;;;;0.90;0.80;;;;;;;23.25;53.00;101455.97;5105970;28;20492;-69
2021/07/07 10:16:55;;;;;;;1.10;0.90;;;;;;;23.25;51.91;101461.28;5074207;28;20047;-66
2021/07/07 10:19:21;;;;;;;1.27;0.93;;;;;;;23.22;51.35;101464.31;5104276;28;20043;-66
2021/07/07 10:21:48;;;;;;;3.30;1.00;;;;;;;23.13;50.93;101463.59;5070673;28;20085;-66
2021/07/07 10:24:21;;;;;;;1.92;1.27;;;;;;;23.36;50.78;101471.44;5103638;28;20562;-64
2021/07/07 10:26:48;;;;;;;1.83;0.98;;;;;;;23.24;50.87;101462.31;5059657;28;20168;-65
2021/07/07 10:29:15;;;;;;;1.25;0.82;;;;;;;23.17;51.72;101469.38;5085646;28;20027;-71
2021/07/07 10:31:56;;;;;;;1.40;0.90;;;;;;;23.22;52.00;101474.97;5055657;28;20670;-67
2021/07/07 10:34:24;;;;;;;1.17;0.70;;;;;;;23.27;51.50;101477.03;5103603;28;20040;-67
2021/07/07 10:36:50;;;;;;;1.42;0.65;;;;;;;23.18;53.08;101473.69;5067370;28;20039;-67
2021/07/07 10:39:17;;;;;;;1.10;0.80;;;;;;;23.16;53.24;101471.22;5101594;28;20077;-67
2021/07/07 10:41:46;;;;;;;0.75;0.70;;;;;;;23.09;53.27;101474.78;5078705;28;20803;-66
2021/07/07 10:44:23;;;;;;;1.63;0.67;;;;;;;23.13;52.79;101478.72;5090331;28;20108;-66
2021/07/07 10:47:13;;;;;;;1.35;0.75;;;;;;;23.17;52.82;101470.22;5103913;28;20469;-69
2021/07/07 10:49:45;;;;;;;0.98;0.90;;;;;;;23.26;52.40;101473.56;5079870;28;20678;-70
2021/07/07 10:52:19;;;;;;;0.57;0.52;;;;;;;23.38;52.39;101487.19;5102095;28;20046;-68
2021/07/07 10:54:59;;;;;;;0.70;0.70;;;;;;;23.28;52.37;101494.63;5079095;28;20122;-67
2021/07/07 10:57:26;;;;;;;1.50;0.68;;;;;;;23.24;52.57;101488.88;5106977;28;20059;-67
2021/07/07 10:59:54;;;;;;;1.08;0.90;;;;;;;23.44;51.62;101489.91;5072394;28;20024;-65
2021/07/07 11:02:25;;;;;;;1.23;0.73;;;;;;;23.41;51.01;101490.31;5099228;28;20043;-68
2021/07/07 11:04:52;;;;;;;0.73;0.55;;;;;;;23.34;51.90;101489.41;5065132;28;20088;-71
2021/07/07 11:07:36;;;;;;;1.40;0.60;;;;;;;23.40;52.03;101503.78;5103887;28;20092;-68
2021/07/07 11:10:17;;;;;;;0.45;0.45;;;;;;;23.08;52.87;101502.38;5060210;28;20067;-66
2021/07/07 11:12:42;;;;;;;0.73;0.73;;;;;;;22.97;53.33;101495.66;5104167;28;20097;-66
2021/07/07 11:15:13;;;;;;;0.68;0.60;;;;;;;22.91;53.73;101512.34;5048632;28;20040;-65
2021/07/07 11:17:48;;;;;;;1.42;0.68;;;;;;;23.00;52.38;101508.63;5105654;28;20039;-65
2021/07/07 11:20:16;;;;;;;0.80;0.60;;;;;;;22.96;53.14;101504.66;5076134;28;20039;-65
2021/07/07 11:22:45;;;;;;;0.85;0.70;;;;;;;22.93;52.20;101507.69;5103970;28;20030;-64
2021/07/07 11:25:16;;;;;;;0.90;0.80;;;;;;;22.94;52.55;101506.66;5077650;28;20085;-64
2021/07/07 11:27:43;;;;;;;0.85;0.77;;;;;;;22.86;52.85;101506.78;5089647;28;20051;-65